Terminal Aerodrome Forecast
Issued by NWS

Home | Current Version | Previous Version | Text Only | Print | Product List | Glossary On
Versions: 1 2 3 4 5 6 7 8 9 10 11 12 13
183
FTUS44 KEPZ 302326
TAFTCS
TAF
KTCS 302326Z 0100/0124 19016G24KT P6SM BKN110
     FM010400 20012KT P6SM SCT110
     FM010800 07012KT P6SM FEW070
     FM011700 14012G25KT P6SM BKN070
     FM012000 17017G25KT P6SM VCSH OVC070=

USA.gov is the U.S. government's official web portal to all federal, state and local government web resources and services.